createdAt,value
2023-05-02T00:00:14.520Z,18.10
2023-05-02T00:02:19.717Z,16.17
2023-05-02T00:04:25.460Z,15.70
2023-05-02T00:06:28.535Z,19.57
2023-05-02T00:08:31.485Z,17.33
2023-05-02T00:10:34.391Z,18.57
2023-05-02T00:12:37.291Z,18.07
2023-05-02T00:14:40.263Z,21.00
2023-05-02T00:16:44.675Z,18.67
2023-05-02T00:18:47.661Z,20.07
2023-05-02T00:20:54.457Z,19.87
2023-05-02T00:22:57.492Z,18.60
2023-05-02T00:25:00.454Z,18.87
2023-05-02T00:27:03.915Z,20.53
2023-05-02T00:29:07.972Z,23.23
2023-05-02T00:31:13.642Z,22.63
2023-05-02T00:33:17.980Z,23.10
2023-05-02T00:35:21.011Z,23.50
2023-05-02T00:37:29.640Z,23.97
2023-05-02T00:39:32.469Z,22.97
2023-05-02T00:41:35.410Z,22.40
2023-05-02T00:43:39.467Z,24.50
2023-05-02T00:45:44.473Z,23.57
2023-05-02T00:47:47.481Z,25.67
2023-05-02T00:49:52.383Z,24.53
2023-05-02T00:51:55.733Z,24.67
2023-05-02T00:54:03.202Z,26.37
2023-05-02T00:56:06.898Z,24.97
2023-05-02T00:58:16.450Z,23.40
2023-05-02T01:00:19.516Z,24.33
2023-05-02T01:02:33.235Z,26.97
2023-05-02T01:04:44.927Z,25.40
2023-05-02T01:07:01.422Z,27.47
2023-05-02T01:09:23.142Z,27.80
2023-05-02T01:11:38.054Z,26.83
2023-05-02T01:13:46.084Z,24.47
2023-05-02T01:15:51.659Z,24.83
2023-05-02T01:17:56.833Z,24.97
2023-05-02T01:20:04.410Z,25.63
2023-05-02T01:22:14.525Z,25.27
2023-05-02T01:24:26.273Z,24.50
2023-05-02T01:26:37.469Z,25.73
2023-05-02T01:29:03.412Z,24.93
2023-05-02T01:31:09.102Z,26.43
2023-05-02T01:33:14.750Z,26.27
2023-05-02T01:35:21.554Z,25.50
2023-05-02T01:37:28.624Z,27.27
2023-05-02T01:39:32.061Z,26.07
2023-05-02T01:41:36.689Z,26.20
2023-05-02T01:43:41.331Z,25.27
2023-05-02T01:45:51.291Z,26.43
2023-05-02T01:47:55.668Z,25.90
2023-05-02T01:50:02.364Z,29.77
2023-05-02T01:52:13.755Z,28.30
2023-05-02T01:54:18.392Z,26.30
2023-05-02T01:56:22.342Z,26.30
2023-05-02T01:58:30.527Z,26.73
2023-05-02T02:00:34.784Z,26.30
2023-05-02T02:02:40.453Z,27.90
2023-05-02T02:04:46.973Z,27.33
2023-05-02T02:06:57.119Z,26.57
2023-05-02T02:09:01.604Z,26.83
2023-05-02T02:11:11.815Z,28.13
2023-05-02T02:13:19.303Z,26.47
2023-05-02T02:15:28.917Z,26.87
2023-05-02T02:17:41.605Z,24.27
2023-05-02T02:19:47.231Z,26.63
2023-05-02T02:21:52.343Z,25.10
2023-05-02T02:23:58.374Z,26.53
2023-05-02T02:26:05.223Z,27.30
2023-05-02T02:28:08.444Z,25.00
2023-05-02T02:30:14.851Z,27.93
2023-05-02T02:32:19.712Z,25.43
2023-05-02T02:34:24.201Z,28.70
2023-05-02T02:36:37.281Z,27.67
2023-05-02T02:38:47.089Z,28.40
2023-05-02T02:40:59.011Z,27.20
2023-05-02T02:43:13.529Z,26.27
2023-05-02T02:45:30.757Z,29.57
2023-05-02T02:47:42.395Z,29.37
2023-05-02T02:49:54.684Z,28.10
2023-05-02T02:52:05.958Z,26.27
2023-05-02T02:54:25.808Z,29.37
2023-05-02T02:56:39.039Z,27.17
2023-05-02T02:58:49.381Z,27.57
2023-05-02T03:00:53.304Z,27.37
2023-05-02T03:02:57.664Z,26.37
2023-05-02T03:05:05.640Z,26.87
2023-05-02T03:07:11.002Z,24.97
2023-05-02T03:09:18.858Z,25.33
2023-05-02T03:11:23.902Z,25.87
2023-05-02T03:13:31.786Z,25.30
2023-05-02T03:16:26.171Z,26.80
2023-05-02T03:18:29.824Z,24.07
2023-05-02T03:20:34.086Z,21.60
2023-05-02T03:22:40.265Z,23.67
2023-05-02T03:24:43.467Z,25.47
2023-05-02T03:26:55.186Z,21.33
2023-05-02T03:29:01.256Z,24.63
2023-05-02T03:31:09.689Z,20.13
2023-05-02T03:33:15.858Z,21.13
2023-05-02T03:35:21.965Z,24.57
2023-05-02T03:37:28.407Z,24.13
2023-05-02T03:39:33.631Z,23.57
2023-05-02T03:41:37.536Z,22.77
2023-05-02T03:43:45.327Z,22.27
2023-05-02T03:45:49.086Z,25.73
2023-05-02T03:47:53.004Z,24.10
2023-05-02T03:49:57.708Z,25.10
2023-05-02T03:52:00.881Z,25.00
2023-05-02T03:54:09.796Z,24.10
2023-05-02T03:56:20.854Z,23.20
2023-05-02T03:58:32.643Z,24.13
2023-05-02T04:00:36.080Z,24.53
2023-05-02T04:02:42.509Z,24.57
2023-05-02T04:04:49.911Z,25.17
2023-05-02T04:06:56.087Z,25.47
2023-05-02T04:09:00.496Z,23.27
2023-05-02T04:11:11.308Z,22.50
2023-05-02T04:13:14.335Z,25.03
2023-05-02T04:15:22.017Z,24.20
2023-05-02T04:17:26.865Z,21.00
2023-05-02T04:19:29.820Z,22.47
2023-05-02T04:21:32.904Z,24.03
2023-05-02T04:23:35.947Z,23.93
2023-05-02T04:25:40.052Z,23.83
2023-05-02T04:27:45.466Z,23.33
2023-05-02T04:29:53.238Z,25.27
2023-05-02T04:31:59.442Z,24.70
2023-05-02T04:34:07.843Z,23.97
2023-05-02T04:36:17.294Z,26.17
2023-05-02T04:38:21.588Z,25.30
2023-05-02T04:40:26.300Z,26.10
2023-05-02T04:42:36.181Z,27.43
2023-05-02T04:44:50.095Z,24.17
2023-05-02T04:46:53.513Z,26.20
2023-05-02T04:48:56.559Z,25.63
2023-05-02T04:51:02.973Z,25.70
2023-05-02T04:53:07.268Z,28.07
2023-05-02T04:55:12.534Z,24.93
2023-05-02T04:57:16.104Z,28.40
2023-05-02T04:59:23.197Z,28.17
2023-05-02T05:01:28.749Z,29.87
2023-05-02T05:03:35.537Z,25.83
2023-05-02T05:05:39.076Z,30.03
2023-05-02T05:07:45.423Z,27.90
2023-05-02T05:09:48.467Z,29.60
2023-05-02T05:11:52.213Z,33.77
2023-05-02T05:13:55.371Z,32.90
2023-05-02T05:16:01.557Z,32.07
2023-05-02T05:18:10.899Z,29.73
2023-05-02T05:20:23.734Z,32.37
2023-05-02T05:22:30.438Z,33.37
2023-05-02T05:24:33.902Z,29.83
2023-05-02T05:26:38.466Z,31.43
2023-05-02T05:28:41.332Z,28.40
2023-05-02T05:30:44.210Z,32.63
2023-05-02T05:32:50.063Z,30.67
2023-05-02T05:34:54.775Z,30.30
2023-05-02T05:37:03.540Z,28.77
2023-05-02T05:39:06.741Z,30.60
2023-05-02T05:41:11.462Z,27.93
2023-05-02T05:43:18.240Z,27.80
2023-05-02T05:45:21.114Z,28.03
2023-05-02T05:47:26.285Z,27.73
2023-05-02T05:49:31.490Z,27.17
2023-05-02T05:51:36.686Z,28.83
2023-05-02T05:53:41.349Z,29.27
2023-05-02T05:55:46.833Z,27.13
2023-05-02T05:57:49.988Z,28.27
2023-05-02T05:59:52.996Z,26.33
2023-05-02T06:01:58.608Z,25.10
2023-05-02T06:04:03.331Z,26.57
2023-05-02T06:06:07.087Z,24.53
2023-05-02T06:08:12.303Z,22.37
2023-05-02T06:10:15.473Z,22.63
2023-05-02T06:12:19.763Z,20.57
2023-05-02T06:14:25.209Z,22.40
2023-05-02T06:16:30.891Z,21.33
2023-05-02T06:18:36.357Z,21.07
2023-05-02T06:20:39.259Z,20.93
2023-05-02T06:22:43.190Z,20.00
2023-05-02T06:24:51.647Z,18.20
2023-05-02T06:26:54.579Z,16.93
2023-05-02T06:28:59.584Z,17.13
2023-05-02T06:31:04.613Z,16.67
2023-05-02T06:33:07.790Z,16.70
2023-05-02T06:35:13.847Z,16.53
2023-05-02T06:37:19.109Z,16.10
2023-05-02T06:39:22.324Z,15.80
2023-05-02T06:41:26.539Z,14.97
2023-05-02T06:43:29.530Z,14.30
2023-05-02T06:45:34.598Z,15.53
2023-05-02T06:47:38.536Z,14.17
2023-05-02T06:49:43.425Z,15.37
2023-05-02T06:51:46.334Z,15.33
2023-05-02T06:53:51.018Z,13.77
2023-05-02T06:55:57.859Z,13.10
2023-05-02T06:58:03.068Z,13.23
2023-05-02T07:00:07.227Z,14.10
2023-05-02T07:02:10.222Z,13.83
2023-05-02T07:04:13.191Z,13.33
2023-05-02T07:06:19.151Z,12.33
2023-05-02T07:08:23.828Z,14.57
2023-05-02T07:10:27.187Z,13.47
2023-05-02T07:12:32.228Z,11.70
2023-05-02T07:14:36.523Z,11.60
2023-05-02T07:16:39.411Z,10.77
2023-05-02T07:18:45.724Z,11.13
2023-05-02T07:20:51.021Z,10.97
2023-05-02T07:22:53.974Z,10.40
2023-05-02T07:25:00.464Z,10.83
2023-05-02T07:27:03.748Z,14.00
2023-05-02T07:29:08.784Z,10.20
2023-05-02T07:31:13.068Z,8.93
2023-05-02T07:33:16.550Z,10.67
2023-05-02T07:35:19.365Z,9.73
2023-05-02T07:37:22.797Z,9.00
2023-05-02T07:39:26.261Z,10.30
2023-05-02T07:41:31.151Z,10.07
2023-05-02T07:43:34.170Z,12.60
2023-05-02T07:45:39.129Z,11.23
2023-05-02T07:47:47.087Z,9.27
2023-05-02T07:49:52.363Z,12.37
2023-05-02T07:51:56.181Z,11.83
2023-05-02T07:53:59.479Z,12.43
2023-05-02T07:56:07.256Z,12.43
2023-05-02T07:58:10.151Z,11.43
2023-05-02T08:00:16.158Z,9.43
2023-05-02T08:02:20.250Z,10.40
2023-05-02T08:04:26.808Z,10.83
2023-05-02T08:06:29.793Z,14.20
2023-05-02T08:08:36.367Z,11.13
2023-05-02T08:10:39.347Z,10.17
2023-05-02T08:12:42.738Z,11.63
2023-05-02T08:14:45.645Z,11.80
2023-05-02T08:16:48.796Z,14.00
2023-05-02T08:18:51.900Z,11.87
2023-05-02T08:20:58.390Z,11.30
2023-05-02T08:23:01.479Z,12.87
2023-05-02T08:25:04.672Z,11.17
2023-05-02T08:27:10.275Z,11.23
2023-05-02T08:29:13.267Z,12.57
2023-05-02T08:31:16.373Z,12.93
2023-05-02T08:33:19.446Z,13.20
2023-05-02T08:35:27.141Z,11.47
2023-05-02T08:37:32.079Z,14.80
2023-05-02T08:39:36.612Z,14.13
2023-05-02T08:41:40.943Z,12.60
2023-05-02T08:43:47.426Z,13.73
2023-05-02T08:45:55.372Z,13.10
2023-05-02T08:47:59.617Z,11.23
2023-05-02T08:50:06.204Z,10.97
2023-05-02T08:52:11.767Z,12.57
2023-05-02T08:54:18.045Z,13.60
2023-05-02T08:56:23.288Z,13.07
2023-05-02T08:58:26.181Z,10.97
2023-05-02T09:00:30.104Z,12.30
2023-05-02T09:02:51.832Z,13.07
2023-05-02T09:05:00.175Z,10.23
2023-05-02T09:07:03.454Z,11.53
2023-05-02T09:09:06.789Z,9.77
2023-05-02T09:11:14.731Z,9.80
2023-05-02T09:13:32.174Z,9.97
2023-05-02T09:15:35.037Z,8.33
2023-05-02T09:17:51.397Z,8.93
2023-05-02T09:20:01.464Z,9.47
2023-05-02T09:22:04.370Z,9.73
2023-05-02T09:24:18.071Z,9.67
2023-05-02T09:26:24.833Z,8.53
2023-05-02T09:28:40.860Z,8.97
2023-05-02T09:30:46.845Z,7.60
2023-05-02T09:32:52.425Z,8.40
2023-05-02T09:35:08.733Z,7.60
2023-05-02T09:37:13.446Z,7.03
2023-05-02T09:39:17.602Z,6.73
2023-05-02T09:41:22.430Z,6.87
2023-05-02T09:43:25.372Z,6.90
2023-05-02T09:45:28.195Z,6.73
2023-05-02T09:47:32.171Z,6.73
2023-05-02T09:49:42.783Z,5.90
2023-05-02T09:51:46.512Z,6.60
2023-05-02T09:53:49.980Z,7.50
2023-05-02T09:56:06.245Z,6.77
2023-05-02T09:58:23.559Z,6.57
2023-05-02T10:00:40.051Z,5.43
2023-05-02T10:02:44.515Z,5.57
2023-05-02T10:04:48.313Z,5.67
2023-05-02T10:06:53.158Z,5.30
2023-05-02T10:08:56.300Z,6.07
2023-05-02T10:11:00.640Z,5.07
2023-05-02T10:13:09.798Z,5.27
2023-05-02T10:15:17.459Z,4.97
2023-05-02T10:17:29.881Z,4.30
2023-05-02T10:19:39.584Z,4.33
2023-05-02T10:21:44.873Z,5.37
2023-05-02T10:23:48.785Z,4.77
2023-05-02T10:25:51.881Z,5.80
2023-05-02T10:27:57.003Z,5.40
2023-05-02T10:30:04.413Z,5.87
2023-05-02T10:32:12.441Z,6.17
2023-05-02T10:34:16.911Z,5.53
2023-05-02T10:36:22.993Z,4.83
2023-05-02T10:38:26.389Z,4.93
2023-05-02T10:40:31.567Z,4.37
2023-05-02T10:42:39.737Z,4.73
2023-05-02T10:44:43.457Z,5.90
2023-05-02T10:46:46.673Z,5.10
2023-05-02T10:49:02.126Z,5.80
2023-05-02T10:51:08.487Z,6.00
2023-05-02T10:53:27.287Z,6.60
2023-05-02T10:55:30.833Z,7.50
2023-05-02T10:57:36.690Z,7.10
2023-05-02T10:59:40.749Z,6.27
2023-05-02T11:01:43.631Z,7.40
2023-05-02T11:03:58.502Z,7.73
2023-05-02T11:06:08.215Z,8.30
2023-05-02T11:08:32.966Z,7.77
2023-05-02T11:10:35.852Z,9.53
2023-05-02T11:12:45.832Z,7.70
2023-05-02T11:14:51.737Z,8.13
2023-05-02T11:17:10.624Z,8.77
2023-05-02T11:19:14.992Z,7.03
2023-05-02T11:21:29.518Z,6.40
2023-05-02T11:23:32.492Z,3.37
2023-05-02T11:25:37.757Z,2.70
2023-05-02T11:27:41.353Z,2.23
2023-05-02T11:29:53.672Z,1.60
2023-05-02T11:31:56.713Z,1.93
2023-05-02T11:34:03.994Z,1.90
2023-05-02T11:36:10.924Z,1.53
2023-05-02T11:38:17.652Z,1.60
2023-05-02T11:40:20.997Z,1.43
2023-05-02T11:42:33.249Z,2.03
2023-05-02T11:44:53.374Z,1.73
2023-05-02T11:46:56.872Z,1.87
2023-05-02T11:49:02.006Z,2.33
2023-05-02T11:51:10.723Z,2.50
2023-05-02T11:53:14.513Z,3.17
2023-05-02T11:55:19.881Z,2.50
2023-05-02T11:57:23.834Z,2.47
2023-05-02T11:59:26.753Z,2.70
2023-05-02T12:01:32.251Z,2.63
2023-05-02T12:03:37.408Z,2.67
2023-05-02T12:05:40.523Z,2.43
2023-05-02T12:07:46.180Z,2.87
2023-05-02T12:09:53.122Z,2.77
2023-05-02T12:11:56.066Z,2.87
2023-05-02T12:13:58.957Z,2.57
2023-05-02T12:16:04.493Z,2.73
2023-05-02T12:18:08.755Z,3.13
2023-05-02T12:20:12.831Z,2.53
2023-05-02T12:22:16.927Z,2.87
2023-05-02T12:24:21.364Z,2.33
2023-05-02T12:26:29.379Z,2.57
2023-05-02T12:28:32.291Z,2.10
2023-05-02T12:30:36.119Z,2.27
2023-05-02T12:32:42.618Z,2.23
2023-05-02T12:34:47.227Z,2.60
2023-05-02T12:36:53.619Z,2.00
2023-05-02T12:39:01.496Z,1.50
2023-05-02T12:41:06.821Z,1.90
2023-05-02T12:43:13.395Z,1.50
2023-05-02T12:45:22.086Z,1.67
2023-05-02T12:47:28.150Z,1.57
2023-05-02T12:49:31.876Z,2.03
2023-05-02T12:51:35.038Z,1.10
2023-05-02T12:53:43.182Z,1.20
2023-05-02T12:55:46.831Z,1.33
2023-05-02T12:58:04.202Z,1.40
2023-05-02T13:00:08.701Z,2.37
2023-05-02T13:02:14.471Z,1.57
2023-05-02T13:04:26.950Z,1.60
2023-05-02T13:06:30.117Z,1.50
2023-05-02T13:08:36.840Z,1.60
2023-05-02T13:10:43.136Z,1.70
2023-05-02T13:12:47.115Z,1.53
2023-05-02T13:14:51.410Z,1.20
2023-05-02T13:16:55.298Z,1.60
2023-05-02T13:19:05.793Z,1.13
2023-05-02T13:21:08.653Z,1.30
2023-05-02T13:23:16.712Z,1.40
2023-05-02T13:25:19.647Z,1.40
2023-05-02T13:27:24.937Z,1.40
2023-05-02T13:29:28.064Z,1.00
2023-05-02T13:31:35.529Z,1.10
2023-05-02T13:33:39.531Z,1.40
2023-05-02T13:35:42.857Z,1.60
2023-05-02T13:37:47.851Z,1.40
2023-05-02T13:39:50.780Z,1.27
2023-05-02T13:41:53.685Z,1.67
2023-05-02T13:43:56.893Z,1.30
2023-05-02T13:46:02.911Z,1.30
2023-05-02T13:48:08.206Z,1.40
2023-05-02T13:50:13.631Z,1.43
2023-05-02T13:52:17.488Z,3.63
2023-05-02T13:54:20.822Z,1.83
2023-05-02T13:56:25.112Z,2.10
2023-05-02T13:58:27.951Z,1.30
2023-05-02T14:00:30.838Z,1.50
2023-05-02T14:02:33.872Z,1.30
2023-05-02T14:04:41.057Z,1.33
2023-05-02T14:06:46.713Z,1.73
2023-05-02T14:08:53.182Z,1.30
2023-05-02T14:10:56.060Z,1.30
2023-05-02T14:13:01.898Z,1.40
2023-05-02T14:15:05.645Z,1.67
2023-05-02T14:17:08.585Z,1.67
2023-05-02T14:19:11.476Z,1.40
2023-05-02T14:21:16.082Z,1.47
2023-05-02T14:23:18.952Z,1.30
2023-05-02T14:25:23.867Z,2.67
2023-05-02T14:27:26.851Z,1.70
2023-05-02T14:29:32.087Z,1.77
2023-05-02T14:31:35.108Z,2.10
2023-05-02T14:33:39.097Z,2.00
2023-05-02T14:35:44.485Z,1.67
2023-05-02T14:37:48.622Z,2.13
2023-05-02T14:39:54.910Z,1.40
2023-05-02T14:42:04.122Z,1.60
2023-05-02T14:44:10.995Z,2.27
2023-05-02T14:46:15.377Z,1.87
2023-05-02T14:48:18.460Z,1.43
2023-05-02T14:50:21.307Z,2.33
2023-05-02T14:52:24.946Z,2.47
2023-05-02T14:54:30.661Z,1.63
2023-05-02T14:56:33.704Z,1.50
2023-05-02T14:58:36.732Z,3.10
2023-05-02T15:00:42.394Z,1.50
2023-05-02T15:02:45.394Z,1.77
2023-05-02T15:04:48.483Z,1.70
2023-05-02T15:06:54.146Z,1.70
2023-05-02T15:08:57.426Z,2.10
2023-05-02T15:11:01.677Z,3.37
2023-05-02T15:13:04.889Z,1.87
2023-05-02T15:15:09.550Z,2.20
2023-05-02T15:17:13.051Z,1.97
2023-05-02T15:19:17.930Z,1.70
2023-05-02T15:21:20.890Z,1.90
2023-05-02T15:23:24.070Z,1.57
2023-05-02T15:25:27.217Z,2.23
2023-05-02T15:27:32.660Z,1.20
2023-05-02T15:29:35.578Z,1.67
2023-05-02T15:31:43.047Z,2.33
2023-05-02T15:33:45.974Z,2.03
2023-05-02T15:35:56.475Z,1.47
2023-05-02T15:38:01.345Z,1.60
2023-05-02T15:40:05.074Z,2.43
2023-05-02T15:42:08.184Z,2.33
2023-05-02T15:44:12.440Z,2.03
2023-05-02T15:46:15.353Z,1.67
2023-05-02T15:48:18.731Z,2.27
2023-05-02T15:50:21.732Z,1.30
2023-05-02T15:52:24.960Z,2.27
2023-05-02T15:54:27.917Z,2.10
2023-05-02T15:56:32.241Z,2.43
2023-05-02T15:58:35.500Z,2.50
2023-05-02T16:00:39.811Z,2.70
2023-05-02T16:02:44.988Z,2.50
2023-05-02T16:04:48.120Z,1.73
2023-05-02T16:06:51.193Z,1.97
2023-05-02T16:08:54.224Z,2.03
2023-05-02T16:11:01.246Z,2.00
2023-05-02T16:13:06.536Z,2.40
2023-05-02T16:15:10.168Z,2.23
2023-05-02T16:17:17.468Z,2.83
2023-05-02T16:19:22.789Z,1.90
2023-05-02T16:21:25.680Z,1.53
2023-05-02T16:23:28.614Z,2.47
2023-05-02T16:25:31.772Z,2.03
2023-05-02T16:27:36.654Z,2.63
2023-05-02T16:29:41.905Z,2.23
2023-05-02T16:31:44.932Z,2.47
2023-05-02T16:33:53.699Z,2.40
2023-05-02T16:36:02.784Z,2.37
2023-05-02T16:38:09.495Z,2.03
2023-05-02T16:40:13.151Z,2.40
2023-05-02T16:42:15.985Z,1.50
2023-05-02T16:44:20.764Z,2.87
2023-05-02T16:46:25.231Z,2.27
2023-05-02T16:48:30.383Z,1.70
2023-05-02T16:50:36.927Z,2.40
2023-05-02T16:52:39.837Z,4.60
2023-05-02T16:54:42.704Z,2.47
2023-05-02T16:56:45.875Z,3.20
2023-05-02T16:58:51.220Z,2.30
2023-05-02T17:00:54.201Z,1.90
2023-05-02T17:02:57.260Z,2.43
2023-05-02T17:05:00.327Z,2.70
2023-05-02T17:07:04.699Z,2.23
2023-05-02T17:09:09.924Z,2.17
2023-05-02T17:11:13.297Z,2.33
2023-05-02T17:13:18.151Z,3.23
2023-05-02T17:15:22.092Z,2.50
2023-05-02T17:17:25.989Z,3.30
2023-05-02T17:19:31.614Z,2.50
2023-05-02T17:21:35.737Z,2.50
2023-05-02T17:23:40.112Z,3.00
2023-05-02T17:25:43.111Z,2.03
2023-05-02T17:27:46.506Z,2.27
2023-05-02T17:29:49.650Z,3.47
2023-05-02T17:31:52.531Z,2.83
2023-05-02T17:33:56.833Z,2.93
2023-05-02T17:35:59.701Z,3.67
2023-05-02T17:38:02.637Z,2.27
2023-05-02T17:40:10.080Z,4.23
2023-05-02T17:42:15.269Z,2.83
2023-05-02T17:44:18.420Z,1.93
2023-05-02T17:46:23.124Z,3.67
2023-05-02T17:48:26.107Z,2.30
2023-05-02T17:50:30.034Z,2.43
2023-05-02T17:52:34.249Z,3.50
2023-05-02T17:54:37.258Z,3.17
2023-05-02T17:56:42.610Z,1.70
2023-05-02T17:58:45.572Z,3.03
2023-05-02T18:00:48.615Z,3.77
2023-05-02T18:02:51.690Z,3.83
2023-05-02T18:04:54.940Z,2.47
2023-05-02T18:06:59.657Z,2.30
2023-05-02T18:09:02.538Z,3.13
2023-05-02T18:11:17.423Z,2.47
2023-05-02T18:13:22.385Z,2.57
2023-05-02T18:15:27.445Z,4.03
2023-05-02T18:17:30.315Z,3.17
2023-05-02T18:19:37.789Z,4.87
2023-05-02T18:21:42.003Z,3.23
2023-05-02T18:23:46.772Z,3.13
2023-05-02T18:25:49.660Z,3.73
2023-05-02T18:27:56.597Z,5.67
2023-05-02T18:30:11.023Z,3.30
2023-05-02T18:32:18.931Z,3.77
2023-05-02T18:34:22.792Z,4.37
2023-05-02T18:36:29.379Z,4.47
2023-05-02T18:38:33.718Z,4.73
2023-05-02T18:40:36.807Z,3.83
2023-05-02T18:42:39.696Z,4.73
2023-05-02T18:44:42.600Z,4.67
2023-05-02T18:46:46.917Z,4.97
2023-05-02T18:48:52.497Z,5.77
2023-05-02T18:50:57.220Z,5.47
2023-05-02T18:53:01.993Z,4.17
2023-05-02T18:55:06.136Z,4.33
2023-05-02T18:57:09.139Z,4.17
2023-05-02T18:59:12.012Z,5.70
2023-05-02T19:01:15.791Z,4.07
2023-05-02T19:03:21.573Z,5.20
2023-05-02T19:05:30.139Z,4.90
2023-05-02T19:07:33.074Z,5.37
2023-05-02T19:09:37.638Z,6.10
2023-05-02T19:11:41.247Z,4.97
2023-05-02T19:13:44.424Z,5.90
2023-05-02T19:15:47.410Z,5.37
2023-05-02T19:17:54.866Z,4.40
2023-05-02T19:20:01.442Z,4.80
2023-05-02T19:22:07.034Z,5.73
2023-05-02T19:24:12.010Z,6.53
2023-05-02T19:26:18.189Z,6.20
2023-05-02T19:28:22.801Z,7.60
2023-05-02T19:30:25.797Z,4.67
2023-05-02T19:32:29.138Z,6.83
2023-05-02T19:34:34.074Z,6.63
2023-05-02T19:36:38.490Z,5.67
2023-05-02T19:38:57.828Z,5.00
2023-05-02T19:41:00.954Z,7.27
2023-05-02T19:43:03.854Z,7.03
2023-05-02T19:45:08.400Z,7.33
2023-05-02T19:47:11.384Z,6.70
2023-05-02T19:49:14.267Z,5.10
2023-05-02T19:51:17.422Z,6.63
2023-05-02T19:53:21.913Z,8.33
2023-05-02T19:55:24.794Z,6.60
2023-05-02T19:57:27.719Z,6.30
2023-05-02T19:59:30.649Z,5.93
2023-05-02T20:01:33.726Z,8.90
2023-05-02T20:03:36.859Z,7.37
2023-05-02T20:05:39.998Z,8.07
2023-05-02T20:07:44.423Z,7.47
2023-05-02T20:09:48.666Z,6.30
2023-05-02T20:11:52.625Z,6.87
2023-05-02T20:13:57.333Z,6.27
2023-05-02T20:16:00.405Z,11.30
2023-05-02T20:18:05.781Z,8.30
2023-05-02T20:20:12.734Z,6.63
2023-05-02T20:22:15.744Z,6.43
2023-05-02T20:24:18.976Z,4.97
2023-05-02T20:26:23.375Z,9.17
2023-05-02T20:28:27.886Z,7.43
2023-05-02T20:30:31.215Z,8.53
2023-05-02T20:32:36.214Z,8.27
2023-05-02T20:34:40.251Z,6.73
2023-05-02T20:36:43.179Z,6.53
2023-05-02T20:38:48.342Z,6.87
2023-05-02T20:40:51.681Z,6.27
2023-05-02T20:43:01.215Z,8.10
2023-05-02T20:45:07.095Z,6.33
2023-05-02T20:47:10.140Z,8.60
2023-05-02T20:49:15.694Z,6.80
2023-05-02T20:51:18.649Z,7.90
2023-05-02T20:53:23.922Z,6.63
2023-05-02T20:55:29.833Z,6.60
2023-05-02T20:57:32.784Z,9.53
2023-05-02T20:59:37.050Z,6.77
2023-05-02T21:01:39.979Z,6.67
2023-05-02T21:03:42.950Z,9.37
2023-05-02T21:05:48.444Z,6.67
2023-05-02T21:07:51.276Z,7.67
2023-05-02T21:09:54.264Z,9.37
2023-05-02T21:12:00.551Z,7.43
2023-05-02T21:14:03.420Z,8.03
2023-05-02T21:16:14.983Z,8.70
2023-05-02T21:18:18.026Z,7.67
2023-05-02T21:20:21.397Z,7.93
2023-05-02T21:22:25.787Z,10.00
2023-05-02T21:24:28.667Z,10.10
2023-05-02T21:26:31.708Z,9.47
2023-05-02T21:28:36.071Z,7.30
2023-05-02T21:30:41.334Z,7.57
2023-05-02T21:32:46.292Z,9.47
2023-05-02T21:34:50.351Z,9.57
2023-05-02T21:36:53.235Z,9.80
2023-05-02T21:38:56.145Z,10.47
2023-05-02T21:41:02.688Z,9.97
2023-05-02T21:43:05.729Z,8.83
2023-05-02T21:45:09.813Z,7.57
2023-05-02T21:47:15.063Z,7.03
2023-05-02T21:49:21.146Z,9.83
2023-05-02T21:51:24.014Z,9.23
2023-05-02T21:53:27.531Z,11.07
2023-05-02T21:55:32.350Z,7.83
2023-05-02T21:57:35.489Z,8.30
2023-05-02T21:59:40.651Z,8.73
2023-05-02T22:01:43.749Z,9.50
2023-05-02T22:03:46.664Z,8.57
2023-05-02T22:05:54.428Z,9.47
2023-05-02T22:07:57.377Z,9.20
2023-05-02T22:10:00.931Z,10.47
2023-05-02T22:12:04.136Z,8.83
2023-05-02T22:14:07.429Z,7.53
2023-05-02T22:16:10.807Z,9.13
2023-05-02T22:18:14.336Z,9.50
2023-05-02T22:20:17.292Z,8.30
2023-05-02T22:22:21.503Z,9.07
2023-05-02T22:24:24.499Z,8.70
2023-05-02T22:26:32.373Z,9.57
2023-05-02T22:28:35.275Z,8.30
2023-05-02T22:30:38.596Z,10.10
2023-05-02T22:32:42.213Z,8.27
2023-05-02T22:34:45.071Z,10.03
2023-05-02T22:36:47.931Z,7.77
2023-05-02T22:38:52.215Z,8.03
2023-05-02T22:40:55.099Z,9.10
2023-05-02T22:42:58.376Z,9.70
2023-05-02T22:45:01.761Z,7.90
2023-05-02T22:47:05.029Z,9.33
2023-05-02T22:49:10.360Z,7.13
2023-05-02T22:51:13.509Z,8.83
2023-05-02T22:53:18.071Z,10.07
2023-05-02T22:55:23.619Z,8.17
2023-05-02T22:57:26.739Z,7.77
2023-05-02T22:59:30.495Z,9.40
2023-05-02T23:01:34.466Z,8.03
2023-05-02T23:03:37.670Z,8.70
2023-05-02T23:05:40.666Z,11.27
2023-05-02T23:07:45.386Z,7.63
2023-05-02T23:09:48.284Z,9.17
2023-05-02T23:11:52.462Z,12.03
2023-05-02T23:14:00.873Z,8.67
2023-05-02T23:16:05.624Z,9.70
2023-05-02T23:18:08.757Z,11.90
2023-05-02T23:20:15.056Z,10.70
2023-05-02T23:22:20.382Z,9.27
2023-05-02T23:24:28.333Z,8.10
2023-05-02T23:26:32.101Z,10.60
2023-05-02T23:28:36.349Z,8.93
2023-05-02T23:30:40.090Z,11.07
2023-05-02T23:32:45.418Z,11.10
2023-05-02T23:34:50.070Z,11.73
2023-05-02T23:36:53.464Z,9.07
2023-05-02T23:38:58.604Z,9.27
2023-05-02T23:41:01.503Z,9.60
2023-05-02T23:43:04.918Z,10.47
2023-05-02T23:45:11.757Z,9.10
2023-05-02T23:47:15.020Z,13.17
2023-05-02T23:49:21.191Z,10.20
2023-05-02T23:51:27.663Z,11.80
2023-05-02T23:53:31.832Z,11.23
2023-05-02T23:55:36.897Z,12.03
2023-05-02T23:57:39.958Z,11.80
2023-05-02T23:59:42.774Z,10.20
